sensor_id;sensor_type;location;lat;lon;timestamp;temperature;humidity
70475;DHT22;57944;48.722;9.316;2022-10-16T00:02:08;16.50;99.90
70475;DHT22;57944;48.722;9.316;2022-10-16T00:04:38;16.20;99.90
70475;DHT22;57944;48.722;9.316;2022-10-16T00:07:11;16.00;99.90
70475;DHT22;57944;48.722;9.316;2022-10-16T00:09:41;16.00;99.90
70475;DHT22;57944;48.722;9.316;2022-10-16T00:12:11;16.00;99.90
70475;DHT22;57944;48.722;9.316;2022-10-16T00:14:41;16.00;99.90
70475;DHT22;57944;48.722;9.316;2022-10-16T00:17:11;15.90;99.90
70475;DHT22;57944;48.722;9.316;2022-10-16T00:19:42;15.90;99.90
70475;DHT22;57944;48.722;9.316;2022-10-16T00:22:14;15.70;99.90
70475;DHT22;57944;48.722;9.316;2022-10-16T00:24:44;15.70;99.90
70475;DHT22;57944;48.722;9.316;2022-10-16T00:27:14;15.70;99.90
70475;DHT22;57944;48.722;9.316;2022-10-16T00:29:44;15.70;99.90
70475;DHT22;57944;48.722;9.316;2022-10-16T00:32:19;15.70;99.90
70475;DHT22;57944;48.722;9.316;2022-10-16T00:34:50;15.60;99.90
70475;DHT22;57944;48.722;9.316;2022-10-16T00:37:24;15.50;99.90
70475;DHT22;57944;48.722;9.316;2022-10-16T00:39:54;15.40;99.90
70475;DHT22;57944;48.722;9.316;2022-10-16T00:42:24;15.40;99.90
70475;DHT22;57944;48.722;9.316;2022-10-16T00:44:56;15.30;99.90
70475;DHT22;57944;48.722;9.316;2022-10-16T00:47:29;15.10;99.90
70475;DHT22;57944;48.722;9.316;2022-10-16T00:50:06;15.00;99.90
70475;DHT22;57944;48.722;9.316;2022-10-16T00:52:46;14.80;99.90
70475;DHT22;57944;48.722;9.316;2022-10-16T00:55:18;15.00;99.90
70475;DHT22;57944;48.722;9.316;2022-10-16T00:57:50;15.10;99.90
70475;DHT22;57944;48.722;9.316;2022-10-16T01:00:23;15.10;99.90
70475;DHT22;57944;48.722;9.316;2022-10-16T01:02:57;15.20;99.90
70475;DHT22;57944;48.722;9.316;2022-10-16T01:05:34;15.10;99.90
70475;DHT22;57944;48.722;9.316;2022-10-16T01:08:15;15.20;99.90
70475;DHT22;57944;48.722;9.316;2022-10-16T01:10:56;15.10;99.90
70475;DHT22;57944;48.722;9.316;2022-10-16T01:13:32;14.90;99.90
70475;DHT22;57944;48.722;9.316;2022-10-16T01:16:11;14.90;99.90
70475;DHT22;57944;48.722;9.316;2022-10-16T01:18:46;14.90;99.90
70475;DHT22;57944;48.722;9.316;2022-10-16T01:21:27;14.90;99.90
70475;DHT22;57944;48.722;9.316;2022-10-16T01:24:11;14.90;99.90
70475;DHT22;57944;48.722;9.316;2022-10-16T01:29:53;15.00;99.90
70475;DHT22;57944;48.722;9.316;2022-10-16T01:32:35;15.10;99.90
70475;DHT22;57944;48.722;9.316;2022-10-16T01:35:10;15.00;99.90
70475;DHT22;57944;48.722;9.316;2022-10-16T01:37:48;15.00;99.90
70475;DHT22;57944;48.722;9.316;2022-10-16T01:40:24;15.10;99.90
70475;DHT22;57944;48.722;9.316;2022-10-16T01:43:00;15.10;99.90
70475;DHT22;57944;48.722;9.316;2022-10-16T01:45:34;15.00;99.90
70475;DHT22;57944;48.722;9.316;2022-10-16T01:48:07;14.70;99.90
70475;DHT22;57944;48.722;9.316;2022-10-16T01:50:41;14.70;99.90
70475;DHT22;57944;48.722;9.316;2022-10-16T01:53:19;14.80;99.90
70475;DHT22;57944;48.722;9.316;2022-10-16T01:55:52;14.90;99.90
70475;DHT22;57944;48.722;9.316;2022-10-16T01:58:28;14.90;99.90
70475;DHT22;57944;48.722;9.316;2022-10-16T02:01:04;14.90;99.90
70475;DHT22;57944;48.722;9.316;2022-10-16T02:03:41;15.00;99.90
70475;DHT22;57944;48.722;9.316;2022-10-16T02:06:12;15.00;99.90
70475;DHT22;57944;48.722;9.316;2022-10-16T02:08:43;15.00;99.90
70475;DHT22;57944;48.722;9.316;2022-10-16T02:11:13;15.10;99.90
70475;DHT22;57944;48.722;9.316;2022-10-16T02:13:50;15.10;99.90
70475;DHT22;57944;48.722;9.316;2022-10-16T02:16:33;15.10;99.90
70475;DHT22;57944;48.722;9.316;2022-10-16T02:19:06;15.10;99.90
70475;DHT22;57944;48.722;9.316;2022-10-16T02:21:42;15.10;99.90
70475;DHT22;57944;48.722;9.316;2022-10-16T02:24:19;15.10;99.90
70475;DHT22;57944;48.722;9.316;2022-10-16T02:27:03;15.10;99.90
70475;DHT22;57944;48.722;9.316;2022-10-16T02:29:45;15.10;99.90
70475;DHT22;57944;48.722;9.316;2022-10-16T02:32:23;15.20;99.90
70475;DHT22;57944;48.722;9.316;2022-10-16T02:34:58;15.30;99.90
70475;DHT22;57944;48.722;9.316;2022-10-16T02:37:30;15.40;99.90
70475;DHT22;57944;48.722;9.316;2022-10-16T02:40:01;15.40;99.90
70475;DHT22;57944;48.722;9.316;2022-10-16T02:42:34;15.40;99.90
70475;DHT22;57944;48.722;9.316;2022-10-16T02:45:11;15.40;99.90
70475;DHT22;57944;48.722;9.316;2022-10-16T02:47:41;15.20;99.90
70475;DHT22;57944;48.722;9.316;2022-10-16T02:50:11;15.20;99.90
70475;DHT22;57944;48.722;9.316;2022-10-16T02:52:41;15.20;99.90
70475;DHT22;57944;48.722;9.316;2022-10-16T02:55:11;15.30;99.90
70475;DHT22;57944;48.722;9.316;2022-10-16T02:57:41;15.10;99.90
70475;DHT22;57944;48.722;9.316;2022-10-16T03:00:16;15.10;99.90
70475;DHT22;57944;48.722;9.316;2022-10-16T03:02:47;14.80;99.90
70475;DHT22;57944;48.722;9.316;2022-10-16T03:05:17;14.70;99.90
70475;DHT22;57944;48.722;9.316;2022-10-16T03:08:07;14.60;99.90
70475;DHT22;57944;48.722;9.316;2022-10-16T03:10:37;14.70;99.90
70475;DHT22;57944;48.722;9.316;2022-10-16T03:13:07;14.70;99.90
70475;DHT22;57944;48.722;9.316;2022-10-16T03:15:40;14.80;99.90
70475;DHT22;57944;48.722;9.316;2022-10-16T03:18:10;14.80;99.90
70475;DHT22;57944;48.722;9.316;2022-10-16T03:20:40;14.80;99.90
70475;DHT22;57944;48.722;9.316;2022-10-16T03:23:10;14.90;99.90
70475;DHT22;57944;48.722;9.316;2022-10-16T03:25:41;15.00;99.90
70475;DHT22;57944;48.722;9.316;2022-10-16T03:28:14;15.00;99.90
70475;DHT22;57944;48.722;9.316;2022-10-16T03:30:47;15.00;99.90
70475;DHT22;57944;48.722;9.316;2022-10-16T03:33:17;14.80;99.90
70475;DHT22;57944;48.722;9.316;2022-10-16T03:35:51;14.80;99.90
70475;DHT22;57944;48.722;9.316;2022-10-16T03:38:22;14.80;99.90
70475;DHT22;57944;48.722;9.316;2022-10-16T03:40:52;14.50;99.90
70475;DHT22;57944;48.722;9.316;2022-10-16T03:43:22;14.60;99.90
70475;DHT22;57944;48.722;9.316;2022-10-16T03:45:55;14.60;99.90
70475;DHT22;57944;48.722;9.316;2022-10-16T03:48:25;14.50;99.90
70475;DHT22;57944;48.722;9.316;2022-10-16T03:50:55;14.50;99.90
70475;DHT22;57944;48.722;9.316;2022-10-16T03:53:25;14.40;99.90
70475;DHT22;57944;48.722;9.316;2022-10-16T03:55:55;14.50;99.90
70475;DHT22;57944;48.722;9.316;2022-10-16T03:58:26;14.60;99.90
70475;DHT22;57944;48.722;9.316;2022-10-16T04:00:58;14.70;99.90
70475;DHT22;57944;48.722;9.316;2022-10-16T04:03:28;14.80;99.90
70475;DHT22;57944;48.722;9.316;2022-10-16T04:05:58;14.80;99.90
70475;DHT22;57944;48.722;9.316;2022-10-16T04:08:28;14.70;99.90
70475;DHT22;57944;48.722;9.316;2022-10-16T04:11:01;14.70;99.90
70475;DHT22;57944;48.722;9.316;2022-10-16T04:13:31;14.60;99.90
70475;DHT22;57944;48.722;9.316;2022-10-16T04:16:03;14.60;99.90
70475;DHT22;57944;48.722;9.316;2022-10-16T04:18:34;14.50;99.90
70475;DHT22;57944;48.722;9.316;2022-10-16T04:21:05;14.50;99.90
70475;DHT22;57944;48.722;9.316;2022-10-16T04:23:35;14.50;99.90
70475;DHT22;57944;48.722;9.316;2022-10-16T04:26:05;14.50;99.90
70475;DHT22;57944;48.722;9.316;2022-10-16T04:28:37;14.50;99.90
70475;DHT22;57944;48.722;9.316;2022-10-16T04:31:09;14.50;99.90
70475;DHT22;57944;48.722;9.316;2022-10-16T04:33:42;14.50;99.90
70475;DHT22;57944;48.722;9.316;2022-10-16T04:36:12;14.40;99.90
70475;DHT22;57944;48.722;9.316;2022-10-16T04:38:42;14.40;99.90
70475;DHT22;57944;48.722;9.316;2022-10-16T04:41:12;14.40;99.90
70475;DHT22;57944;48.722;9.316;2022-10-16T04:43:42;14.40;99.90
70475;DHT22;57944;48.722;9.316;2022-10-16T04:46:15;14.50;99.90
70475;DHT22;57944;48.722;9.316;2022-10-16T04:48:45;14.40;99.90
70475;DHT22;57944;48.722;9.316;2022-10-16T04:51:15;14.20;99.90
70475;DHT22;57944;48.722;9.316;2022-10-16T04:53:45;14.20;99.90
70475;DHT22;57944;48.722;9.316;2022-10-16T04:56:15;14.10;99.90
70475;DHT22;57944;48.722;9.316;2022-10-16T04:58:45;14.20;99.90
70475;DHT22;57944;48.722;9.316;2022-10-16T05:01:18;14.30;99.90
70475;DHT22;57944;48.722;9.316;2022-10-16T05:03:48;14.40;99.90
70475;DHT22;57944;48.722;9.316;2022-10-16T05:06:18;14.50;99.90
70475;DHT22;57944;48.722;9.316;2022-10-16T05:08:48;14.50;99.90
70475;DHT22;57944;48.722;9.316;2022-10-16T05:11:18;14.40;99.90
70475;DHT22;57944;48.722;9.316;2022-10-16T05:13:48;14.50;99.90
70475;DHT22;57944;48.722;9.316;2022-10-16T05:16:24;14.50;99.90
70475;DHT22;57944;48.722;9.316;2022-10-16T05:18:54;14.60;99.90
70475;DHT22;57944;48.722;9.316;2022-10-16T05:21:44;14.60;99.90
70475;DHT22;57944;48.722;9.316;2022-10-16T05:24:14;14.50;99.90
70475;DHT22;57944;48.722;9.316;2022-10-16T05:26:44;14.50;99.90
70475;DHT22;57944;48.722;9.316;2022-10-16T05:29:14;14.40;99.90
70475;DHT22;57944;48.722;9.316;2022-10-16T05:31:50;14.50;99.90
70475;DHT22;57944;48.722;9.316;2022-10-16T05:34:21;14.50;99.90
70475;DHT22;57944;48.722;9.316;2022-10-16T05:36:51;14.30;99.90
70475;DHT22;57944;48.722;9.316;2022-10-16T05:39:21;14.30;99.90
70475;DHT22;57944;48.722;9.316;2022-10-16T05:41:51;14.40;99.90
70475;DHT22;57944;48.722;9.316;2022-10-16T05:44:21;14.60;99.90
70475;DHT22;57944;48.722;9.316;2022-10-16T05:46:54;14.40;99.90
70475;DHT22;57944;48.722;9.316;2022-10-16T05:49:24;14.40;99.90
70475;DHT22;57944;48.722;9.316;2022-10-16T05:51:54;14.20;99.90
70475;DHT22;57944;48.722;9.316;2022-10-16T05:54:24;14.30;99.90
70475;DHT22;57944;48.722;9.316;2022-10-16T05:56:54;14.30;99.90
70475;DHT22;57944;48.722;9.316;2022-10-16T05:59:24;14.30;99.90
70475;DHT22;57944;48.722;9.316;2022-10-16T06:01:57;14.40;99.90
70475;DHT22;57944;48.722;9.316;2022-10-16T06:04:27;14.40;99.90
70475;DHT22;57944;48.722;9.316;2022-10-16T06:06:58;14.60;99.90
70475;DHT22;57944;48.722;9.316;2022-10-16T06:09:29;14.60;99.90
70475;DHT22;57944;48.722;9.316;2022-10-16T06:11:59;14.50;99.90
70475;DHT22;57944;48.722;9.316;2022-10-16T06:14:29;14.50;99.90
70475;DHT22;57944;48.722;9.316;2022-10-16T06:17:02;14.70;99.90
70475;DHT22;57944;48.722;9.316;2022-10-16T06:19:32;14.80;99.90
70475;DHT22;57944;48.722;9.316;2022-10-16T06:22:02;14.80;99.90
70475;DHT22;57944;48.722;9.316;2022-10-16T06:24:32;14.80;99.90
70475;DHT22;57944;48.722;9.316;2022-10-16T06:27:03;15.00;99.90
70475;DHT22;57944;48.722;9.316;2022-10-16T06:29:33;15.30;99.90
70475;DHT22;57944;48.722;9.316;2022-10-16T06:32:07;15.40;99.90
70475;DHT22;57944;48.722;9.316;2022-10-16T06:34:37;15.40;99.90
70475;DHT22;57944;48.722;9.316;2022-10-16T06:37:10;15.60;99.90
70475;DHT22;57944;48.722;9.316;2022-10-16T06:39:40;15.70;99.90
70475;DHT22;57944;48.722;9.316;2022-10-16T06:42:10;15.80;99.90
70475;DHT22;57944;48.722;9.316;2022-10-16T06:44:40;15.80;99.90
70475;DHT22;57944;48.722;9.316;2022-10-16T06:47:13;16.10;99.90
70475;DHT22;57944;48.722;9.316;2022-10-16T06:49:43;16.40;99.90
70475;DHT22;57944;48.722;9.316;2022-10-16T06:52:20;16.70;99.90
70475;DHT22;57944;48.722;9.316;2022-10-16T06:54:50;16.90;99.90
70475;DHT22;57944;48.722;9.316;2022-10-16T06:57:21;17.10;99.90
70475;DHT22;57944;48.722;9.316;2022-10-16T06:59:51;17.30;99.90
70475;DHT22;57944;48.722;9.316;2022-10-16T07:02:23;17.50;99.90
70475;DHT22;57944;48.722;9.316;2022-10-16T07:04:54;17.70;99.90
70475;DHT22;57944;48.722;9.316;2022-10-16T07:07:24;17.80;99.90
70475;DHT22;57944;48.722;9.316;2022-10-16T07:09:54;17.80;99.90
70475;DHT22;57944;48.722;9.316;2022-10-16T07:12:24;17.80;99.90
70475;DHT22;57944;48.722;9.316;2022-10-16T07:14:55;17.80;99.90
70475;DHT22;57944;48.722;9.316;2022-10-16T07:17:27;17.80;99.90
70475;DHT22;57944;48.722;9.316;2022-10-16T07:19:58;17.90;99.90
70475;DHT22;57944;48.722;9.316;2022-10-16T07:22:28;18.00;99.90
70475;DHT22;57944;48.722;9.316;2022-10-16T07:24:58;18.10;99.90
70475;DHT22;57944;48.722;9.316;2022-10-16T07:27:28;18.20;99.90
70475;DHT22;57944;48.722;9.316;2022-10-16T07:30:00;18.30;99.90
70475;DHT22;57944;48.722;9.316;2022-10-16T07:32:37;18.20;99.90
70475;DHT22;57944;48.722;9.316;2022-10-16T07:35:08;18.10;99.90
70475;DHT22;57944;48.722;9.316;2022-10-16T07:37:38;18.10;99.90
70475;DHT22;57944;48.722;9.316;2022-10-16T07:40:09;18.20;99.90
70475;DHT22;57944;48.722;9.316;2022-10-16T07:42:39;18.20;99.90
70475;DHT22;57944;48.722;9.316;2022-10-16T07:45:10;18.20;99.90
70475;DHT22;57944;48.722;9.316;2022-10-16T07:47:42;18.20;99.90
70475;DHT22;57944;48.722;9.316;2022-10-16T07:50:12;18.30;99.90
70475;DHT22;57944;48.722;9.316;2022-10-16T07:52:42;18.30;99.90
70475;DHT22;57944;48.722;9.316;2022-10-16T07:55:13;18.30;99.90
70475;DHT22;57944;48.722;9.316;2022-10-16T07:57:43;18.30;99.90
70475;DHT22;57944;48.722;9.316;2022-10-16T08:00:13;18.30;99.90
70475;DHT22;57944;48.722;9.316;2022-10-16T08:02:46;18.30;99.90
70475;DHT22;57944;48.722;9.316;2022-10-16T08:05:16;18.50;99.90
70475;DHT22;57944;48.722;9.316;2022-10-16T08:07:48;18.70;99.90
70475;DHT22;57944;48.722;9.316;2022-10-16T08:10:20;18.90;99.90
70475;DHT22;57944;48.722;9.316;2022-10-16T08:12:52;19.00;99.90
70475;DHT22;57944;48.722;9.316;2022-10-16T08:15:23;19.20;99.90
70475;DHT22;57944;48.722;9.316;2022-10-16T08:18:00;19.40;99.90
70475;DHT22;57944;48.722;9.316;2022-10-16T08:20:32;19.70;99.90
70475;DHT22;57944;48.722;9.316;2022-10-16T08:23:03;20.00;99.90
70475;DHT22;57944;48.722;9.316;2022-10-16T08:25:35;20.20;99.90
70475;DHT22;57944;48.722;9.316;2022-10-16T08:28:07;20.40;99.90
70475;DHT22;57944;48.722;9.316;2022-10-16T08:30:39;20.60;99.90
70475;DHT22;57944;48.722;9.316;2022-10-16T08:33:11;20.70;99.90
70475;DHT22;57944;48.722;9.316;2022-10-16T08:35:42;21.00;99.90
70475;DHT22;57944;48.722;9.316;2022-10-16T08:38:12;21.40;99.90
70475;DHT22;57944;48.722;9.316;2022-10-16T08:40:42;22.00;99.90
70475;DHT22;57944;48.722;9.316;2022-10-16T08:43:31;22.40;99.90
70475;DHT22;57944;48.722;9.316;2022-10-16T08:46:26;22.50;99.90
70475;DHT22;57944;48.722;9.316;2022-10-16T08:49:18;22.60;99.90
70475;DHT22;57944;48.722;9.316;2022-10-16T08:51:48;22.40;99.90
70475;DHT22;57944;48.722;9.316;2022-10-16T08:54:28;22.40;99.90
70475;DHT22;57944;48.722;9.316;2022-10-16T08:57:17;22.20;99.90
70475;DHT22;57944;48.722;9.316;2022-10-16T08:59:50;22.40;99.90
70475;DHT22;57944;48.722;9.316;2022-10-16T09:02:29;22.40;99.90
70475;DHT22;57944;48.722;9.316;2022-10-16T09:05:30;22.20;99.90
70475;DHT22;57944;48.722;9.316;2022-10-16T09:08:25;21.80;99.90
70475;DHT22;57944;48.722;9.316;2022-10-16T09:11:07;21.50;99.90
70475;DHT22;57944;48.722;9.316;2022-10-16T09:13:48;21.20;99.90
70475;DHT22;57944;48.722;9.316;2022-10-16T09:16:29;21.50;99.90
70475;DHT22;57944;48.722;9.316;2022-10-16T09:19:09;21.60;99.90
70475;DHT22;57944;48.722;9.316;2022-10-16T09:21:47;21.90;99.90
70475;DHT22;57944;48.722;9.316;2022-10-16T09:24:23;22.00;99.90
70475;DHT22;57944;48.722;9.316;2022-10-16T09:26:55;22.20;99.90
70475;DHT22;57944;48.722;9.316;2022-10-16T09:29:25;22.40;99.90
70475;DHT22;57944;48.722;9.316;2022-10-16T09:31:57;22.70;99.90
70475;DHT22;57944;48.722;9.316;2022-10-16T09:34:43;23.10;99.90
70475;DHT22;57944;48.722;9.316;2022-10-16T09:37:21;23.30;99.90
70475;DHT22;57944;48.722;9.316;2022-10-16T09:39:55;23.80;99.90
70475;DHT22;57944;48.722;9.316;2022-10-16T09:42:35;24.50;99.90
70475;DHT22;57944;48.722;9.316;2022-10-16T09:45:20;24.20;99.90
70475;DHT22;57944;48.722;9.316;2022-10-16T09:47:53;23.80;99.90
70475;DHT22;57944;48.722;9.316;2022-10-16T09:50:25;23.80;99.90
70475;DHT22;57944;48.722;9.316;2022-10-16T09:53:11;23.80;99.90
70475;DHT22;57944;48.722;9.316;2022-10-16T09:55:50;24.50;99.90
70475;DHT22;57944;48.722;9.316;2022-10-16T09:58:22;25.00;99.90
70475;DHT22;57944;48.722;9.316;2022-10-16T10:00:54;24.90;99.90
70475;DHT22;57944;48.722;9.316;2022-10-16T10:03:36;24.80;99.90
70475;DHT22;57944;48.722;9.316;2022-10-16T10:06:18;24.40;99.90
70475;DHT22;57944;48.722;9.316;2022-10-16T10:09:06;24.40;99.90
70475;DHT22;57944;48.722;9.316;2022-10-16T10:11:52;25.00;99.90
70475;DHT22;57944;48.722;9.316;2022-10-16T10:14:27;26.20;99.90
70475;DHT22;57944;48.722;9.316;2022-10-16T10:17:15;27.30;99.90
70475;DHT22;57944;48.722;9.316;2022-10-16T10:19:50;28.90;99.90
70475;DHT22;57944;48.722;9.316;2022-10-16T10:22:28;30.00;99.90
70475;DHT22;57944;48.722;9.316;2022-10-16T10:25:15;29.20;99.90
70475;DHT22;57944;48.722;9.316;2022-10-16T10:28:05;28.10;99.90
70475;DHT22;57944;48.722;9.316;2022-10-16T10:30:57;27.50;99.90
70475;DHT22;57944;48.722;9.316;2022-10-16T10:33:39;27.80;99.90
70475;DHT22;57944;48.722;9.316;2022-10-16T10:36:26;29.10;99.90
70475;DHT22;57944;48.722;9.316;2022-10-16T10:39:01;30.30;99.90
70475;DHT22;57944;48.722;9.316;2022-10-16T10:45:11;30.30;99.90
70475;DHT22;57944;48.722;9.316;2022-10-16T10:47:57;31.00;99.20
70475;DHT22;57944;48.722;9.316;2022-10-16T10:50:51;29.90;98.40
70475;DHT22;57944;48.722;9.316;2022-10-16T10:53:35;29.20;99.70
70475;DHT22;57944;48.722;9.316;2022-10-16T10:56:20;28.30;99.90
70475;DHT22;57944;48.722;9.316;2022-10-16T11:02:28;25.70;99.90
70475;DHT22;57944;48.722;9.316;2022-10-16T11:05:22;25.00;99.90
70475;DHT22;57944;48.722;9.316;2022-10-16T11:08:02;24.20;99.90
70475;DHT22;57944;48.722;9.316;2022-10-16T11:10:45;23.90;99.90
70475;DHT22;57944;48.722;9.316;2022-10-16T11:13:29;23.70;99.90
70475;DHT22;57944;48.722;9.316;2022-10-16T11:16:14;23.10;99.90
70475;DHT22;57944;48.722;9.316;2022-10-16T11:18:54;22.60;99.90
70475;DHT22;57944;48.722;9.316;2022-10-16T11:21:32;22.40;99.90
70475;DHT22;57944;48.722;9.316;2022-10-16T11:24:16;22.40;99.90
70475;DHT22;57944;48.722;9.316;2022-10-16T11:26:53;22.40;99.90
70475;DHT22;57944;48.722;9.316;2022-10-16T11:29:27;22.50;99.90
70475;DHT22;57944;48.722;9.316;2022-10-16T11:32:07;22.70;99.90
70475;DHT22;57944;48.722;9.316;2022-10-16T11:34:53;23.20;99.90
70475;DHT22;57944;48.722;9.316;2022-10-16T11:37:33;23.60;99.90
70475;DHT22;57944;48.722;9.316;2022-10-16T11:40:19;24.10;99.90
70475;DHT22;57944;48.722;9.316;2022-10-16T11:42:58;24.10;99.90
70475;DHT22;57944;48.722;9.316;2022-10-16T11:45:58;24.00;99.90
70475;DHT22;57944;48.722;9.316;2022-10-16T11:48:43;23.70;99.90
70475;DHT22;57944;48.722;9.316;2022-10-16T11:51:24;23.60;99.90
70475;DHT22;57944;48.722;9.316;2022-10-16T11:54:07;23.70;99.90
70475;DHT22;57944;48.722;9.316;2022-10-16T11:56:50;23.60;99.90
70475;DHT22;57944;48.722;9.316;2022-10-16T11:59:29;23.60;99.90
70475;DHT22;57944;48.722;9.316;2022-10-16T12:02:25;23.50;99.90
70475;DHT22;57944;48.722;9.316;2022-10-16T12:05:15;23.60;99.90
70475;DHT22;57944;48.722;9.316;2022-10-16T12:08:01;23.50;99.90
70475;DHT22;57944;48.722;9.316;2022-10-16T12:10:41;23.80;99.90
70475;DHT22;57944;48.722;9.316;2022-10-16T12:13:30;23.70;99.90
70475;DHT22;57944;48.722;9.316;2022-10-16T12:19:10;23.80;99.90
70475;DHT22;57944;48.722;9.316;2022-10-16T12:21:45;23.90;99.90
70475;DHT22;57944;48.722;9.316;2022-10-16T12:24:32;24.00;99.90
70475;DHT22;57944;48.722;9.316;2022-10-16T12:27:21;23.90;99.90
70475;DHT22;57944;48.722;9.316;2022-10-16T12:29:56;23.90;99.90
70475;DHT22;57944;48.722;9.316;2022-10-16T12:32:31;24.10;99.90
70475;DHT22;57944;48.722;9.316;2022-10-16T12:35:21;24.20;99.90
70475;DHT22;57944;48.722;9.316;2022-10-16T12:38:07;24.40;99.90
70475;DHT22;57944;48.722;9.316;2022-10-16T12:40:46;24.60;99.90
70475;DHT22;57944;48.722;9.316;2022-10-16T12:43:28;24.60;99.90
70475;DHT22;57944;48.722;9.316;2022-10-16T12:46:22;24.50;99.90
70475;DHT22;57944;48.722;9.316;2022-10-16T12:49:21;24.70;99.90
70475;DHT22;57944;48.722;9.316;2022-10-16T12:51:58;24.70;99.90
70475;DHT22;57944;48.722;9.316;2022-10-16T12:54:35;24.50;99.90
70475;DHT22;57944;48.722;9.316;2022-10-16T12:57:19;24.50;99.90
70475;DHT22;57944;48.722;9.316;2022-10-16T13:00:12;24.60;99.90
70475;DHT22;57944;48.722;9.316;2022-10-16T13:03:20;24.90;99.90
70475;DHT22;57944;48.722;9.316;2022-10-16T13:06:19;25.20;99.90
70475;DHT22;57944;48.722;9.316;2022-10-16T13:12:31;24.80;99.90
70475;DHT22;57944;48.722;9.316;2022-10-16T13:15:29;24.90;99.90
70475;DHT22;57944;48.722;9.316;2022-10-16T13:18:15;25.20;99.90
70475;DHT22;57944;48.722;9.316;2022-10-16T13:20:57;25.50;99.90
70475;DHT22;57944;48.722;9.316;2022-10-16T13:23:40;25.80;99.90
70475;DHT22;57944;48.722;9.316;2022-10-16T13:26:24;26.00;99.90
70475;DHT22;57944;48.722;9.316;2022-10-16T13:29:03;26.20;99.90
70475;DHT22;57944;48.722;9.316;2022-10-16T13:31:36;25.90;99.90
70475;DHT22;57944;48.722;9.316;2022-10-16T13:34:13;25.70;99.90
70475;DHT22;57944;48.722;9.316;2022-10-16T13:36:48;25.10;99.90
70475;DHT22;57944;48.722;9.316;2022-10-16T13:39:23;24.90;99.90
70475;DHT22;57944;48.722;9.316;2022-10-16T13:42:10;24.80;99.90
70475;DHT22;57944;48.722;9.316;2022-10-16T13:44:51;24.90;99.90
70475;DHT22;57944;48.722;9.316;2022-10-16T13:47:24;25.00;99.90
70475;DHT22;57944;48.722;9.316;2022-10-16T13:50:00;25.20;99.90
70475;DHT22;57944;48.722;9.316;2022-10-16T13:52:32;25.40;99.90
70475;DHT22;57944;48.722;9.316;2022-10-16T13:55:02;25.60;99.90
70475;DHT22;57944;48.722;9.316;2022-10-16T13:57:36;25.50;99.90
70475;DHT22;57944;48.722;9.316;2022-10-16T14:00:18;25.50;99.90
70475;DHT22;57944;48.722;9.316;2022-10-16T14:02:55;25.40;99.90
70475;DHT22;57944;48.722;9.316;2022-10-16T14:05:30;25.40;99.90
70475;DHT22;57944;48.722;9.316;2022-10-16T14:08:01;25.30;99.90
70475;DHT22;57944;48.722;9.316;2022-10-16T14:10:32;25.30;99.90
70475;DHT22;57944;48.722;9.316;2022-10-16T14:13:06;25.20;99.90
70475;DHT22;57944;48.722;9.316;2022-10-16T14:15:47;25.10;99.90
70475;DHT22;57944;48.722;9.316;2022-10-16T14:18:23;25.10;99.90
70475;DHT22;57944;48.722;9.316;2022-10-16T14:21:06;25.10;99.90
70475;DHT22;57944;48.722;9.316;2022-10-16T14:23:42;25.00;99.90
70475;DHT22;57944;48.722;9.316;2022-10-16T14:26:16;24.90;99.90
70475;DHT22;57944;48.722;9.316;2022-10-16T14:29:06;25.10;99.90
70475;DHT22;57944;48.722;9.316;2022-10-16T14:31:41;25.10;99.90
70475;DHT22;57944;48.722;9.316;2022-10-16T14:34:29;25.10;99.90
70475;DHT22;57944;48.722;9.316;2022-10-16T14:37:08;25.40;99.90
70475;DHT22;57944;48.722;9.316;2022-10-16T14:39:49;25.70;99.90
70475;DHT22;57944;48.722;9.316;2022-10-16T14:42:22;25.90;99.90
70475;DHT22;57944;48.722;9.316;2022-10-16T14:44:57;25.90;99.90
70475;DHT22;57944;48.722;9.316;2022-10-16T14:47:27;26.00;99.90
70475;DHT22;57944;48.722;9.316;2022-10-16T14:49:57;26.10;99.90
70475;DHT22;57944;48.722;9.316;2022-10-16T14:52:27;26.10;99.90
70475;DHT22;57944;48.722;9.316;2022-10-16T14:54:57;26.20;99.90
70475;DHT22;57944;48.722;9.316;2022-10-16T14:57:28;26.20;99.90
70475;DHT22;57944;48.722;9.316;2022-10-16T15:00:13;26.20;99.90
70475;DHT22;57944;48.722;9.316;2022-10-16T15:02:47;26.20;99.90
70475;DHT22;57944;48.722;9.316;2022-10-16T15:05:20;26.10;99.90
70475;DHT22;57944;48.722;9.316;2022-10-16T15:07:53;26.00;99.90
70475;DHT22;57944;48.722;9.316;2022-10-16T15:10:27;25.80;99.90
70475;DHT22;57944;48.722;9.316;2022-10-16T15:12:58;25.60;99.90
70475;DHT22;57944;48.722;9.316;2022-10-16T15:15:39;25.40;99.90
70475;DHT22;57944;48.722;9.316;2022-10-16T15:18:12;25.20;99.90
70475;DHT22;57944;48.722;9.316;2022-10-16T15:20:48;25.10;99.90
70475;DHT22;57944;48.722;9.316;2022-10-16T15:23:21;24.80;99.90
70475;DHT22;57944;48.722;9.316;2022-10-16T15:26:12;24.70;99.90
70475;DHT22;57944;48.722;9.316;2022-10-16T15:28:42;24.40;99.90
70475;DHT22;57944;48.722;9.316;2022-10-16T15:31:14;24.20;99.90
70475;DHT22;57944;48.722;9.316;2022-10-16T15:33:45;24.20;99.90
70475;DHT22;57944;48.722;9.316;2022-10-16T15:36:27;24.10;99.90
70475;DHT22;57944;48.722;9.316;2022-10-16T15:38:57;24.00;99.90
70475;DHT22;57944;48.722;9.316;2022-10-16T15:41:27;23.90;99.90
70475;DHT22;57944;48.722;9.316;2022-10-16T15:43:58;23.60;99.90
70475;DHT22;57944;48.722;9.316;2022-10-16T15:46:31;23.50;99.90
70475;DHT22;57944;48.722;9.316;2022-10-16T15:49:01;23.30;99.90
70475;DHT22;57944;48.722;9.316;2022-10-16T15:51:31;23.20;99.90
70475;DHT22;57944;48.722;9.316;2022-10-16T15:54:02;23.00;99.90
70475;DHT22;57944;48.722;9.316;2022-10-16T15:56:32;22.80;99.90
70475;DHT22;57944;48.722;9.316;2022-10-16T15:59:04;22.70;99.90
70475;DHT22;57944;48.722;9.316;2022-10-16T16:01:37;22.50;99.90
70475;DHT22;57944;48.722;9.316;2022-10-16T16:04:07;22.40;99.90
70475;DHT22;57944;48.722;9.316;2022-10-16T16:06:58;22.20;99.90
70475;DHT22;57944;48.722;9.316;2022-10-16T16:09:29;22.10;99.90
70475;DHT22;57944;48.722;9.316;2022-10-16T16:11:59;21.90;99.90
70475;DHT22;57944;48.722;9.316;2022-10-16T16:14:29;21.70;99.90
70475;DHT22;57944;48.722;9.316;2022-10-16T16:17:03;21.60;99.90
70475;DHT22;57944;48.722;9.316;2022-10-16T16:19:33;21.40;99.90
70475;DHT22;57944;48.722;9.316;2022-10-16T16:22:03;21.30;99.90
70475;DHT22;57944;48.722;9.316;2022-10-16T16:24:38;21.20;99.90
70475;DHT22;57944;48.722;9.316;2022-10-16T16:27:09;20.90;99.90
70475;DHT22;57944;48.722;9.316;2022-10-16T16:29:40;20.80;99.90
70475;DHT22;57944;48.722;9.316;2022-10-16T16:32:13;20.70;99.90
70475;DHT22;57944;48.722;9.316;2022-10-16T16:34:43;20.50;99.90
70475;DHT22;57944;48.722;9.316;2022-10-16T16:37:13;20.30;99.90
70475;DHT22;57944;48.722;9.316;2022-10-16T16:39:43;20.20;99.90